Time;durP1;ratioP1;P1;durP2;ratioP2;P2;SDS_P1;SDS_P2;PMS_P1;PMS_P2;Temp;Humidity;BMP_temperature;BMP_pressure;BME280_temperature;BME280_humidity;BME280_pressure;Samples;Min_cycle;Max_cycle;Signal;HPM_P1;HPM_P2
2021/03/19 00:01:51;;;;;;;3.17;1.97;;;;;;;4.35;53.68;102025.94;6180815;28;20496;-57
2021/03/19 00:05:14;;;;;;;2.47;2.17;;;;;;;4.32;54.08;102023.25;6173928;28;20496;-56
2021/03/19 00:08:34;;;;;;;3.37;2.23;;;;;;;4.27;54.79;102028.25;6185508;28;20230;-54
2021/03/19 00:11:56;;;;;;;3.47;2.40;;;;;;;4.31;54.75;102024.09;6184993;28;20233;-55
2021/03/19 00:15:18;;;;;;;3.07;2.33;;;;;;;4.34;54.85;102030.25;6186058;28;20230;-54
2021/03/19 00:18:39;;;;;;;2.47;2.10;;;;;;;4.11;54.90;102038.81;6187411;28;20233;-55
2021/03/19 00:21:59;;;;;;;2.53;1.97;;;;;;;4.21;54.33;102037.47;6195203;28;20523;-56
2021/03/19 00:25:19;;;;;;;3.50;2.00;;;;;;;4.13;54.98;102045.81;6188442;28;20252;-56
2021/03/19 00:28:41;;;;;;;2.93;2.10;;;;;;;4.09;55.35;102043.03;6187329;28;20309;-56
2021/03/19 00:32:01;;;;;;;3.00;2.00;;;;;;;4.09;55.38;102038.78;6186621;28;20226;-56
2021/03/19 00:35:21;;;;;;;3.53;2.17;;;;;;;3.96;55.51;102053.75;6192585;28;20551;-54
2021/03/19 00:38:42;;;;;;;3.30;2.40;;;;;;;3.85;55.92;102051.59;6187477;28;20249;-56
2021/03/19 00:42:02;;;;;;;4.13;2.20;;;;;;;3.83;56.67;102065.25;6182066;28;20230;-55
2021/03/19 00:45:25;;;;;;;4.00;2.57;;;;;;;3.90;56.58;102064.69;6188519;28;20329;-55
2021/03/19 00:48:45;;;;;;;3.57;2.23;;;;;;;3.83;56.33;102062.69;6190626;28;20239;-54
2021/03/19 00:52:06;;;;;;;2.20;2.00;;;;;;;3.79;57.32;102060.81;6189606;28;20599;-53
2021/03/19 00:55:27;;;;;;;2.07;1.53;;;;;;;3.94;55.98;102049.38;6185571;28;20226;-54
2021/03/19 00:58:47;;;;;;;2.17;1.97;;;;;;;3.94;56.34;102049.38;6180660;28;20234;-56
2021/03/19 01:02:09;;;;;;;3.47;1.97;;;;;;;4.03;56.57;102051.44;6190953;28;20538;-54
2021/03/19 01:05:33;;;;;;;1.90;1.70;;;;;;;3.83;57.01;102052.38;6193551;28;20237;-54
2021/03/19 01:08:54;;;;;;;3.73;2.07;;;;;;;3.58;58.43;102059.16;6189324;28;20230;-56
2021/03/19 01:12:14;;;;;;;5.57;2.37;;;;;;;3.74;58.28;102058.03;6179674;28;20234;-57
2021/03/19 01:15:36;;;;;;;3.77;2.10;;;;;;;3.94;56.78;102061.41;6174889;28;20893;-56
2021/03/19 01:18:57;;;;;;;3.10;2.20;;;;;;;3.81;57.41;102062.63;6186962;28;20627;-55
2021/03/19 01:22:18;;;;;;;5.70;3.03;;;;;;;3.64;57.57;102058.50;6187855;28;20325;-57
2021/03/19 01:25:39;;;;;;;3.80;2.40;;;;;;;3.63;57.85;102065.38;6177258;28;20238;-54
2021/03/19 01:29:00;;;;;;;3.23;1.70;;;;;;;3.62;58.27;102073.91;6180753;28;20234;-56
2021/03/19 01:32:20;;;;;;;3.03;2.07;;;;;;;3.57;57.94;102082.25;6190072;28;20615;-56
2021/03/19 01:35:42;;;;;;;4.10;2.87;;;;;;;3.73;57.79;102085.50;6193419;28;20446;-53
2021/03/19 01:39:03;;;;;;;2.33;2.13;;;;;;;3.66;57.88;102080.06;6180434;28;20282;-57
2021/03/19 01:42:23;;;;;;;2.20;1.87;;;;;;;3.62;58.61;102073.91;6184263;28;20588;-54
2021/03/19 01:46:07;;;;;;;4.13;2.77;;;;;;;3.70;57.81;102075.09;6184345;28;20242;-52
2021/03/19 01:50:05;;;;;;;2.77;2.30;;;;;;;3.82;57.83;102084.09;6175007;28;20221;-55
2021/03/19 01:54:03;;;;;;;3.43;2.40;;;;;;;3.88;56.89;102080.09;6176371;28;20897;-57
2021/03/19 01:58:01;;;;;;;3.27;2.30;;;;;;;3.70;58.04;102082.84;6175676;28;20242;-55
2021/03/19 02:01:58;;;;;;;2.67;2.23;;;;;;;3.68;57.63;102097.34;6186617;28;20225;-57
2021/03/19 02:05:56;;;;;;;4.10;2.20;;;;;;;3.66;57.82;102096.38;6185720;28;20246;-56
2021/03/19 02:09:54;;;;;;;2.60;2.40;;;;;;;3.57;58.61;102102.88;6185654;28;20247;-57
2021/03/19 02:13:51;;;;;;;2.43;2.23;;;;;;;3.51;58.73;102093.22;6179970;28;20501;-56
2021/03/19 02:17:49;;;;;;;3.50;2.30;;;;;;;3.54;58.56;102083.03;6188275;28;20234;-56
2021/03/19 02:21:47;;;;;;;4.53;2.67;;;;;;;3.38;58.46;102090.97;6187235;28;20611;-56
2021/03/19 02:25:45;;;;;;;2.93;2.30;;;;;;;3.46;58.36;102095.59;6187311;28;20527;-58
2021/03/19 02:29:43;;;;;;;3.17;2.43;;;;;;;3.50;58.66;102104.34;6186568;28;20253;-55
2021/03/19 02:33:04;;;;;;;2.50;2.03;;;;;;;3.34;58.37;102105.41;6173825;28;20222;-54
2021/03/19 02:36:29;;;;;;;3.57;2.60;;;;;;;3.45;59.01;102100.69;6168498;28;20227;-57
2021/03/19 02:39:49;;;;;;;5.90;2.80;;;;;;;3.16;59.73;102100.38;6183822;28;20233;-57
2021/03/19 02:43:10;;;;;;;2.37;2.10;;;;;;;3.26;58.74;102099.06;6182684;28;20237;-56
2021/03/19 02:46:30;;;;;;;2.80;1.90;;;;;;;3.20;59.27;102116.81;6182616;28;20261;-54
2021/03/19 02:49:52;;;;;;;5.57;2.97;;;;;;;3.20;59.22;102117.72;6185494;28;20238;-53
2021/03/19 02:53:13;;;;;;;4.20;3.07;;;;;;;3.04;59.74;102117.88;6189932;28;20237;-57
2021/03/19 02:56:34;;;;;;;2.80;2.60;;;;;;;3.20;59.47;102122.88;6179694;28;20249;-57
2021/03/19 02:59:54;;;;;;;5.23;2.17;;;;;;;3.23;59.41;102115.25;6175561;28;20559;-53
2021/03/19 03:03:15;;;;;;;4.13;2.87;;;;;;;3.22;59.77;102126.38;6191145;28;20619;-56
2021/03/19 03:06:39;;;;;;;3.67;3.00;;;;;;;3.44;58.48;102109.25;6177707;28;20853;-54
2021/03/19 03:10:00;;;;;;;4.27;3.20;;;;;;;3.34;59.09;102124.31;6174744;28;20329;-56
2021/03/19 03:13:21;;;;;;;4.70;3.27;;;;;;;3.30;59.50;102122.44;6189611;28;20238;-54
2021/03/19 03:16:43;;;;;;;3.37;2.13;;;;;;;3.30;59.25;102130.16;6190029;28;20667;-56
2021/03/19 03:20:05;;;;;;;2.57;2.37;;;;;;;3.20;59.94;102137.41;6173501;28;20237;-56
2021/03/19 03:23:28;;;;;;;4.03;2.90;;;;;;;3.19;60.08;102144.25;6183266;28;20336;-57
2021/03/19 03:26:49;;;;;;;4.83;3.13;;;;;;;3.13;59.92;102144.00;6183825;28;20237;-55
2021/03/19 03:30:15;;;;;;;3.90;2.60;;;;;;;3.15;59.75;102144.94;6187583;28;20234;-55
2021/03/19 03:33:35;;;;;;;4.43;3.23;;;;;;;3.09;60.24;102152.41;6183359;28;20234;-55
2021/03/19 03:36:56;;;;;;;3.37;2.70;;;;;;;3.24;60.00;102155.66;6179602;28;20611;-56
2021/03/19 03:40:21;;;;;;;4.00;2.83;;;;;;;3.14;60.39;102150.91;6187975;28;20561;-56
2021/03/19 03:43:42;;;;;;;2.33;2.10;;;;;;;3.15;59.71;102155.25;6183684;28;20233;-56
2021/03/19 03:47:03;;;;;;;8.00;5.30;;;;;;;3.24;60.71;102155.66;6187192;28;20238;-55
2021/03/19 03:50:27;;;;;;;51.33;42.50;;;;;;;3.21;60.22;102164.94;6179761;28;20601;-57
2021/03/19 03:53:47;;;;;;;38.57;28.17;;;;;;;3.13;59.95;102169.75;6182914;28;20518;-55
2021/03/19 03:57:08;;;;;;;33.60;26.13;;;;;;;2.97;61.21;102173.38;6183564;28;20222;-53
2021/03/19 04:00:29;;;;;;;69.40;52.13;;;;;;;3.03;60.06;102180.47;6185314;28;20237;-52
2021/03/19 04:03:49;;;;;;;40.70;29.23;;;;;;;2.98;60.01;102184.53;6190483;28;20557;-54
2021/03/19 04:07:10;;;;;;;46.60;38.83;;;;;;;2.99;60.06;102187.19;6182448;28;20337;-56
2021/03/19 04:10:31;;;;;;;21.13;17.40;;;;;;;2.92;60.69;102173.13;6169936;28;20234;-56
2021/03/19 04:13:52;;;;;;;8.43;6.93;;;;;;;2.91;60.14;102176.53;6176362;28;20744;-57
2021/03/19 04:17:24;;;;;;;7.03;3.93;;;;;;;2.96;61.38;102182.75;6185750;28;20241;-57
2021/03/19 04:20:49;;;;;;;14.70;13.10;;;;;;;3.08;60.04;102186.69;6179002;28;20731;-57
2021/03/19 04:24:09;;;;;;;48.97;38.53;;;;;;;2.98;60.63;102189.69;6186676;28;20226;-51
2021/03/19 04:27:31;;;;;;;16.77;14.53;;;;;;;2.91;60.93;102186.84;6178948;28;20238;-51
2021/03/19 04:30:52;;;;;;;38.87;28.60;;;;;;;2.96;60.81;102182.75;6182800;28;20233;-56
2021/03/19 04:34:13;;;;;;;37.23;29.33;;;;;;;3.07;60.43;102183.22;6187823;28;20234;-57
2021/03/19 04:37:33;;;;;;;46.27;32.73;;;;;;;3.17;60.06;102174.22;6193253;28;20230;-55
2021/03/19 04:40:54;;;;;;;44.43;32.67;;;;;;;3.13;60.64;102167.19;6190835;28;20230;-57
2021/03/19 04:44:14;;;;;;;11.37;6.73;;;;;;;2.97;61.09;102175.94;6180412;28;20613;-54
2021/03/19 04:47:36;;;;;;;4.63;4.23;;;;;;;3.10;60.91;102173.09;6180842;28;20261;-54
2021/03/19 04:50:56;;;;;;;6.27;5.03;;;;;;;2.98;60.97;102181.94;6186921;28;20639;-53
2021/03/19 04:54:16;;;;;;;5.83;4.47;;;;;;;2.78;62.25;102192.25;6187198;28;20229;-53
2021/03/19 04:57:37;;;;;;;4.57;4.17;;;;;;;2.72;62.08;102199.69;6187007;28;20312;-56
2021/03/19 05:00:58;;;;;;;5.70;3.87;;;;;;;2.86;61.58;102211.47;6187117;28;20230;-55
2021/03/19 05:04:21;;;;;;;7.20;5.20;;;;;;;2.81;62.46;102224.94;6184325;28;20543;-57
2021/03/19 05:07:41;;;;;;;5.00;4.50;;;;;;;2.88;61.69;102217.56;6187104;28;20262;-56
2021/03/19 05:11:02;;;;;;;5.80;4.70;;;;;;;2.83;61.52;102225.88;6175932;28;20604;-56
2021/03/19 05:14:23;;;;;;;7.37;5.60;;;;;;;2.63;62.69;102220.72;6182719;28;20616;-52
2021/03/19 05:17:43;;;;;;;6.17;5.50;;;;;;;2.82;62.68;102219.00;6185120;28;20624;-56
2021/03/19 05:21:05;;;;;;;7.37;5.00;;;;;;;2.81;62.75;102225.84;6179143;28;20549;-58
2021/03/19 05:24:26;;;;;;;8.03;5.57;;;;;;;3.07;62.20;102223.53;6187224;28;20233;-54
2021/03/19 05:27:46;;;;;;;7.93;5.70;;;;;;;3.02;61.81;102231.03;6187370;28;20656;-57
2021/03/19 05:31:07;;;;;;;6.63;5.90;;;;;;;3.09;61.83;102233.09;6188424;28;20421;-57
2021/03/19 05:34:27;;;;;;;10.80;7.73;;;;;;;3.10;61.93;102229.72;6191297;28;20233;-56
2021/03/19 05:37:50;;;;;;;7.63;5.73;;;;;;;3.28;62.10;102228.75;6191913;28;20226;-52
2021/03/19 05:41:13;;;;;;;9.03;6.17;;;;;;;3.06;62.39;102232.06;6187032;28;20230;-54
2021/03/19 05:44:34;;;;;;;9.97;5.90;;;;;;;3.17;62.52;102229.97;6184213;28;21520;-55
2021/03/19 05:47:58;;;;;;;7.90;6.30;;;;;;;3.47;62.33;102228.72;6181448;28;20627;-57
2021/03/19 05:51:40;;;;;;;7.77;6.07;;;;;;;3.42;61.71;102231.94;6184524;28;20222;-55
2021/03/19 05:55:12;;;;;;;7.00;6.03;;;;;;;3.47;61.94;102240.69;6169474;28;20231;-57
2021/03/19 05:58:33;;;;;;;8.50;6.63;;;;;;;3.52;61.96;102245.25;6188994;28;20229;-57
2021/03/19 06:01:53;;;;;;;9.00;5.93;;;;;;;3.72;60.84;102245.19;6186124;28;20242;-56
2021/03/19 06:05:16;;;;;;;8.40;6.80;;;;;;;3.62;61.28;102253.38;6181745;28;20542;-56
2021/03/19 06:08:39;;;;;;;7.80;7.10;;;;;;;3.44;62.31;102248.31;6188573;28;20655;-57
2021/03/19 06:12:03;;;;;;;7.13;6.30;;;;;;;3.65;61.72;102258.66;6181405;28;20234;-57
2021/03/19 06:15:27;;;;;;;7.67;6.50;;;;;;;3.60;62.14;102258.44;6185304;28;20226;-57
2021/03/19 06:18:50;;;;;;;8.90;6.00;;;;;;;3.76;61.22;102257.41;6180631;28;20624;-56
2021/03/19 06:22:22;;;;;;;8.30;6.77;;;;;;;3.90;61.46;102258.00;6181787;28;20607;-52
2021/03/19 06:25:57;;;;;;;9.83;8.83;;;;;;;4.08;60.81;102258.72;6188500;28;20246;-55
2021/03/19 06:29:26;;;;;;;8.47;6.87;;;;;;;4.10;60.14;102259.66;6183210;28;20320;-52
2021/03/19 06:33:04;;;;;;;7.10;6.47;;;;;;;4.17;60.92;102265.06;6190805;28;20786;-55
2021/03/19 06:36:26;;;;;;;8.23;6.83;;;;;;;4.14;60.73;102269.28;6179158;28;20634;-52
2021/03/19 06:39:49;;;;;;;11.10;6.87;;;;;;;4.27;62.81;102285.28;6180247;28;20328;-58
2021/03/19 06:43:18;;;;;;;8.43;7.57;;;;;;;4.37;61.59;102289.97;6171348;28;20554;-56
2021/03/19 06:46:45;;;;;;;8.83;7.47;;;;;;;4.46;62.38;102287.78;6166964;28;20234;-52
2021/03/19 06:50:08;;;;;;;8.83;7.93;;;;;;;4.36;60.61;102287.31;6182850;28;20490;-55
2021/03/19 06:53:31;;;;;;;8.13;7.33;;;;;;;4.04;61.27;102292.06;6186320;28;20671;-52
2021/03/19 06:57:05;;;;;;;8.30;7.50;;;;;;;4.06;61.39;102300.75;6182298;28;20226;-57
2021/03/19 07:00:35;;;;;;;13.20;8.97;;;;;;;3.96;62.43;102312.38;6182331;28;20242;-59
2021/03/19 07:04:16;;;;;;;6.90;5.87;;;;;;;4.06;62.51;102311.94;6183454;28;20230;-51
2021/03/19 07:07:46;;;;;;;10.63;7.67;;;;;;;4.26;61.25;102324.75;6183013;28;20245;-55
2021/03/19 07:11:27;;;;;;;10.53;7.17;;;;;;;4.69;60.79;102322.22;6174936;28;20614;-56
2021/03/19 07:15:16;;;;;;;7.83;6.97;;;;;;;4.91;59.91;102323.03;6163099;28;20233;-57
2021/03/19 07:19:09;;;;;;;8.70;7.10;;;;;;;5.22;59.33;102332.81;6181564;28;20561;-56
2021/03/19 07:22:55;;;;;;;8.97;7.40;;;;;;;5.44;58.79;102339.63;6182229;28;20245;-58
2021/03/19 07:26:18;;;;;;;9.37;7.07;;;;;;;5.47;58.21;102336.31;6179710;28;20615;-59
2021/03/19 07:29:51;;;;;;;11.97;6.47;;;;;;;5.50;58.60;102331.22;6174316;28;20398;-59
2021/03/19 07:33:37;;;;;;;11.50;7.83;;;;;;;5.94;58.17;102331.91;6184274;28;20261;-57
2021/03/19 07:37:08;;;;;;;12.30;7.37;;;;;;;6.00;58.00;102326.13;6186963;28;20225;-58
2021/03/19 07:40:43;;;;;;;9.70;6.70;;;;;;;6.09;57.43;102337.66;6177215;28;20237;-56
2021/03/19 07:44:27;;;;;;;7.23;6.17;;;;;;;5.75;58.62;102330.41;6186401;28;20237;-55
2021/03/19 07:48:23;;;;;;;12.87;6.40;;;;;;;5.62;58.71;102341.13;6177933;28;20238;-55
2021/03/19 07:51:54;;;;;;;7.17;6.47;;;;;;;5.84;58.42;102337.63;6186357;28;21068;-57
2021/03/19 07:55:22;;;;;;;8.97;7.13;;;;;;;6.27;57.33;102347.72;6172166;28;20238;-55
2021/03/19 07:58:55;;;;;;;7.73;6.93;;;;;;;6.41;57.06;102348.16;6183583;28;20225;-56
2021/03/19 08:02:58;;;;;;;8.83;6.63;;;;;;;6.04;58.17;102352.13;6180631;28;20233;-52
2021/03/19 08:06:28;;;;;;;13.03;6.83;;;;;;;6.48;57.34;102355.31;6160822;28;20987;-57
2021/03/19 08:09:54;;;;;;;11.43;8.10;;;;;;;6.62;56.93;102365.22;6190308;28;20657;-55
2021/03/19 08:13:33;;;;;;;7.57;6.13;;;;;;;6.57;56.43;102370.28;6183432;28;20580;-58
2021/03/19 08:17:02;;;;;;;7.65;6.05;;;;;;;7.27;57.30;102375.88;6177963;28;20750;-56
2021/03/19 08:20:43;;;;;;;7.50;5.10;;;;;;;6.84;55.85;102385.81;6186767;28;20237;-57
2021/03/19 08:24:19;;;;;;;5.47;4.97;;;;;;;6.86;55.99;102384.16;6184666;28;20230;-54
2021/03/19 08:27:45;;;;;;;6.03;5.43;;;;;;;7.05;55.52;102385.56;6186419;28;20269;-55
2021/03/19 08:31:28;;;;;;;6.23;5.47;;;;;;;7.37;54.44;102393.44;6188142;28;20495;-59
2021/03/19 08:35:00;;;;;;;6.33;5.57;;;;;;;8.11;52.53;102405.00;6188528;28;20249;-53
2021/03/19 08:38:26;;;;;;;6.90;5.80;;;;;;;7.71;52.81;102406.47;6189552;28;20241;-57
2021/03/19 08:41:52;;;;;;;4.70;4.10;;;;;;;7.66;52.93;102407.25;6185955;28;20592;-57
2021/03/19 08:45:19;;;;;;;6.93;4.67;;;;;;;7.66;53.68;102403.78;6186225;28;20226;-55
2021/03/19 08:48:51;;;;;;;5.90;4.20;;;;;;;8.00;56.33;102418.53;6186809;28;20253;-57
2021/03/19 08:52:35;;;;;;;6.87;4.23;;;;;;;8.18;52.23;102423.34;6192073;28;20249;-59
2021/03/19 08:56:31;;;;;;;4.30;3.00;;;;;;;7.81;51.67;102421.47;6183335;28;20464;-56
2021/03/19 08:59:53;;;;;;;4.13;3.20;;;;;;;8.15;50.16;102427.59;6184271;28;20233;-54
2021/03/19 09:03:47;;;;;;;7.87;3.63;;;;;;;7.62;51.55;102430.47;6193735;28;20409;-58
2021/03/19 09:07:25;;;;;;;6.17;4.33;;;;;;;7.82;51.50;102428.41;6176652;28;20263;-56
2021/03/19 09:11:07;;;;;;;5.20;4.33;;;;;;;8.47;50.13;102431.94;6185697;28;20233;-58
2021/03/19 09:14:42;;;;;;;6.33;3.60;;;;;;;8.47;49.67;102441.41;6180742;28;20465;-56
2021/03/19 09:18:07;;;;;;;9.03;3.83;;;;;;;8.65;49.33;102435.81;6186468;28;20238;-56
2021/03/19 09:21:30;;;;;;;3.93;2.73;;;;;;;7.77;50.64;102441.25;6188361;28;20238;-54
2021/03/19 09:25:20;;;;;;;5.87;3.03;;;;;;;7.80;50.43;102441.34;6177580;28;20625;-58
2021/03/19 09:28:59;;;;;;;3.60;2.90;;;;;;;8.01;49.43;102443.66;6172554;28;20230;-55
2021/03/19 09:32:39;;;;;;;5.77;2.40;;;;;;;8.26;48.51;102444.31;6178856;28;20226;-56
2021/03/19 09:36:00;;;;;;;3.90;1.70;;;;;;;8.33;47.95;102446.22;6184581;28;20229;-59
2021/03/19 09:39:46;;;;;;;5.10;2.33;;;;;;;8.59;47.37;102440.88;6191160;28;20226;-57
2021/03/19 09:43:09;;;;;;;3.20;2.17;;;;;;;9.49;45.39;102452.47;6190201;28;20238;-58
2021/03/19 09:46:31;;;;;;;2.37;1.70;;;;;;;8.77;46.35;102443.91;6174568;28;20245;-59
2021/03/19 09:50:05;;;;;;;2.73;1.53;;;;;;;8.13;47.07;102456.09;6184869;28;20324;-59
2021/03/19 09:53:33;;;;;;;6.90;3.20;;;;;;;8.11;47.50;102457.75;6185633;28;20233;-55
2021/03/19 09:57:00;;;;;;;3.03;1.97;;;;;;;8.12;46.93;102463.81;6186494;28;20599;-56
2021/03/19 10:00:23;;;;;;;2.77;1.60;;;;;;;8.42;46.41;102462.09;6186354;28;20234;-56
2021/03/19 10:03:47;;;;;;;3.20;1.63;;;;;;;9.12;45.11;102453.41;6185722;28;20226;-57
2021/03/19 10:07:15;;;;;;;3.63;2.00;;;;;;;9.79;43.45;102448.75;6186988;28;20802;-57
2021/03/19 10:10:38;;;;;;;2.43;1.47;;;;;;;9.50;43.60;102450.75;6188569;28;20225;-57
2021/03/19 10:14:14;;;;;;;3.67;1.63;;;;;;;8.58;44.32;102462.47;6182898;28;20246;-58
2021/03/19 10:17:36;;;;;;;1.13;1.03;;;;;;;8.69;44.09;102467.97;6183912;28;20219;-58
2021/03/19 10:21:00;;;;;;;1.63;1.40;;;;;;;8.28;45.50;102471.19;6188137;28;20238;-57
2021/03/19 10:24:27;;;;;;;6.63;1.77;;;;;;;8.06;46.06;102465.44;6175376;28;20228;-56
2021/03/19 10:27:50;;;;;;;2.30;1.50;;;;;;;9.06;45.38;102473.19;6180517;28;20249;-55
2021/03/19 10:31:16;;;;;;;1.53;1.27;;;;;;;9.13;44.45;102466.44;6182239;28;20238;-57
2021/03/19 10:34:47;;;;;;;4.37;1.83;;;;;;;9.75;43.17;102467.75;6176112;28;20241;-56
2021/03/19 10:38:18;;;;;;;1.33;1.23;;;;;;;11.48;40.07;102454.22;6169319;28;20313;-57
2021/03/19 10:41:45;;;;;;;2.67;1.57;;;;;;;11.40;39.36;102459.34;6183811;28;20319;-55
2021/03/19 10:45:18;;;;;;;2.80;1.03;;;;;;;10.01;40.07;102460.47;6187240;28;20325;-57
2021/03/19 10:48:43;;;;;;;1.43;1.00;;;;;;;9.14;42.27;102468.16;6185153;28;20233;-59
2021/03/19 10:52:11;;;;;;;2.47;1.40;;;;;;;8.46;44.75;102466.50;6171750;28;20294;-59
2021/03/19 10:55:35;;;;;;;2.13;1.00;;;;;;;8.45;45.31;102469.97;6187119;28;20283;-56
2021/03/19 10:59:11;;;;;;;4.23;1.53;;;;;;;11.49;40.51;102470.75;6177471;28;20268;-54
2021/03/19 11:02:32;;;;;;;6.87;2.67;;;;;;;17.68;29.16;102459.88;6184702;28;20233;-56
2021/03/19 11:05:56;;;;;;;3.47;1.20;;;;;;;14.59;31.77;102473.91;6189694;28;20289;-57
2021/03/19 11:09:20;;;;;;;1.87;1.20;;;;;;;13.63;32.67;102481.50;6185694;28;20246;-53
2021/03/19 11:12:44;;;;;;;1.70;1.17;;;;;;;12.97;34.18;102476.69;6180360;28;20313;-56
2021/03/19 11:16:27;;;;;;;1.53;0.90;;;;;;;10.49;39.38;102484.81;6180864;28;20502;-58
2021/03/19 11:20:00;;;;;;;1.13;0.70;;;;;;;10.55;39.49;102490.16;6184959;28;20287;-50
2021/03/19 11:23:35;;;;;;;2.57;1.00;;;;;;;10.03;40.50;102488.28;6182019;28;20237;-54
2021/03/19 11:27:02;;;;;;;2.70;1.00;;;;;;;9.90;41.22;102488.88;6177304;28;20233;-54
2021/03/19 11:30:35;;;;;;;2.47;1.90;;;;;;;9.37;41.91;102494.69;6187941;28;20234;-56
2021/03/19 11:34:05;;;;;;;2.57;1.10;;;;;;;9.46;41.75;102492.31;6185081;28;20329;-55
2021/03/19 11:37:37;;;;;;;2.70;1.40;;;;;;;10.41;40.42;102493.41;6183149;28;20229;-56
2021/03/19 11:40:58;;;;;;;2.03;1.20;;;;;;;9.43;41.63;102502.63;6161870;28;20234;-54
2021/03/19 11:44:19;;;;;;;2.10;1.07;;;;;;;8.48;43.92;102511.56;6165914;28;20241;-57
2021/03/19 11:47:41;;;;;;;4.17;2.20;;;;;;;8.20;44.91;102514.22;6171148;28;20836;-60
2021/03/19 11:51:11;;;;;;;4.53;2.07;;;;;;;8.63;44.31;102524.09;6188134;28;20943;-56
2021/03/19 11:54:32;;;;;;;4.80;2.43;;;;;;;9.49;43.31;102520.09;6182638;28;20340;-54
2021/03/19 11:57:52;;;;;;;4.30;1.60;;;;;;;9.29;42.30;102529.19;6185273;28;20320;-53
2021/03/19 12:01:13;;;;;;;3.27;1.60;;;;;;;9.71;41.44;102523.16;6186160;28;20234;-58
2021/03/19 12:04:34;;;;;;;5.40;1.47;;;;;;;9.27;40.76;102535.19;6187944;28;20245;-58
2021/03/19 12:07:54;;;;;;;3.33;1.53;;;;;;;8.71;45.76;102539.88;6184400;28;20231;-57
2021/03/19 12:11:23;;;;;;;3.17;1.87;;;;;;;9.44;45.87;102543.41;6182707;28;20961;-54
2021/03/19 12:14:44;;;;;;;2.23;1.60;;;;;;;10.19;45.65;102540.66;6183712;28;20583;-53
2021/03/19 12:18:05;;;;;;;1.93;1.77;;;;;;;10.50;38.02;102543.91;6177420;28;20242;-58
2021/03/19 12:21:26;;;;;;;2.10;1.40;;;;;;;9.72;39.58;102543.16;6182749;28;20908;-59
2021/03/19 12:24:47;;;;;;;4.47;1.90;;;;;;;10.14;38.86;102544.88;6167965;28;20234;-58
2021/03/19 12:28:12;;;;;;;12.17;2.57;;;;;;;9.78;39.52;102551.09;6182246;28;20254;-59
2021/03/19 12:31:33;;;;;;;6.27;1.70;;;;;;;9.67;39.69;102556.03;6181566;28;20608;-58
2021/03/19 12:34:53;;;;;;;4.63;1.50;;;;;;;9.75;38.93;102556.22;6185003;28;20242;-59
2021/03/19 12:38:16;;;;;;;4.60;2.03;;;;;;;10.49;37.01;102562.97;6183118;28;20435;-59
2021/03/19 12:41:37;;;;;;;2.17;1.47;;;;;;;10.84;36.86;102561.91;6182607;28;20231;-58
2021/03/19 12:44:58;;;;;;;2.77;1.40;;;;;;;9.74;37.69;102562.28;6178885;28;20231;-58
2021/03/19 12:48:19;;;;;;;3.23;2.07;;;;;;;9.43;38.67;102552.03;6181822;28;20334;-59
2021/03/19 12:51:39;;;;;;;2.33;1.37;;;;;;;9.89;37.51;102562.63;6185528;28;20229;-53
2021/03/19 12:54:59;;;;;;;2.63;1.80;;;;;;;10.92;35.80;102563.78;6180354;28;20234;-58
2021/03/19 12:58:21;;;;;;;2.83;1.80;;;;;;;11.45;34.84;102565.50;6188219;28;20514;-60
2021/03/19 13:01:42;;;;;;;3.00;2.20;;;;;;;13.63;31.56;102546.03;6185173;28;20910;-53
2021/03/19 13:05:03;;;;;;;2.17;1.60;;;;;;;11.60;33.41;102558.75;6188372;28;20237;-58
2021/03/19 13:08:24;;;;;;;4.07;1.90;;;;;;;10.59;35.38;102570.13;6184822;28;20230;-57
2021/03/19 13:11:45;;;;;;;1.67;1.57;;;;;;;10.40;36.07;102571.50;6187982;28;20251;-56
2021/03/19 13:15:10;;;;;;;3.70;1.67;;;;;;;9.65;37.83;102570.75;6189441;28;20245;-58
2021/03/19 13:18:31;;;;;;;4.73;1.57;;;;;;;9.41;38.31;102574.53;6189072;28;20219;-62
2021/03/19 13:21:52;;;;;;;2.70;2.37;;;;;;;9.59;38.64;102581.00;6186002;28;20238;-57
2021/03/19 13:25:15;;;;;;;3.37;1.50;;;;;;;9.40;39.38;102587.50;6182799;28;20337;-57
2021/03/19 13:28:36;;;;;;;1.90;1.37;;;;;;;8.97;39.14;102594.22;6180944;28;20242;-58
2021/03/19 13:31:57;;;;;;;4.50;2.27;;;;;;;8.66;40.97;102596.88;6174874;28;20235;-57
2021/03/19 13:35:20;;;;;;;2.67;1.40;;;;;;;8.12;41.96;102593.56;6186334;28;20230;-59
2021/03/19 13:38:40;;;;;;;2.90;1.97;;;;;;;7.86;42.24;102604.06;6193395;28;20237;-58
2021/03/19 13:42:06;;;;;;;3.17;2.50;;;;;;;7.59;43.13;102602.34;6187048;28;20237;-53
2021/03/19 13:45:27;;;;;;;4.33;1.80;;;;;;;7.62;43.46;102607.66;6181496;28;20404;-54
2021/03/19 13:48:47;;;;;;;2.23;1.80;;;;;;;7.00;43.74;102621.97;6175730;28;20237;-56
2021/03/19 13:52:08;;;;;;;4.10;1.70;;;;;;;6.78;43.26;102621.22;6179858;28;20714;-56
2021/03/19 13:55:29;;;;;;;1.93;1.73;;;;;;;7.05;42.97;102626.50;6191132;28;20569;-57
2021/03/19 13:58:49;;;;;;;3.17;1.70;;;;;;;6.66;42.87;102636.34;6185438;28;20238;-53
2021/03/19 14:02:13;;;;;;;1.83;1.40;;;;;;;6.96;43.12;102643.44;6185406;28;20579;-52
2021/03/19 14:05:36;;;;;;;1.87;1.50;;;;;;;6.92;42.27;102626.94;6190801;28;20241;-57
2021/03/19 14:08:57;;;;;;;2.47;1.50;;;;;;;7.44;41.28;102617.41;6176052;28;20665;-54
2021/03/19 14:12:18;;;;;;;4.60;1.93;;;;;;;7.84;39.74;102616.09;6188038;28;20305;-56
2021/03/19 14:15:39;;;;;;;2.33;1.63;;;;;;;8.69;38.48;102619.47;6185893;28;20230;-57
2021/03/19 14:19:00;;;;;;;3.27;1.27;;;;;;;8.43;38.64;102627.44;6184846;28;20253;-54
2021/03/19 14:22:21;;;;;;;3.13;1.50;;;;;;;8.79;37.78;102631.00;6188776;28;20234;-57
2021/03/19 14:25:42;;;;;;;2.47;1.40;;;;;;;8.73;37.68;102630.84;6185096;28;20234;-53
2021/03/19 14:29:04;;;;;;;1.33;1.23;;;;;;;8.50;37.62;102631.06;6199969;28;20238;-57
2021/03/19 14:32:24;;;;;;;3.57;2.00;;;;;;;11.61;32.44;102612.72;6190127;28;20576;-52
2021/03/19 14:35:46;;;;;;;5.40;1.70;;;;;;;11.94;30.56;102618.41;6189736;28;20229;-57
2021/03/19 14:39:06;;;;;;;2.47;1.67;;;;;;;10.77;34.80;102624.31;6186595;28;20245;-57
2021/03/19 14:42:28;;;;;;;3.47;1.63;;;;;;;9.57;34.42;102633.00;6180232;28;20221;-54
2021/03/19 14:45:49;;;;;;;3.40;1.40;;;;;;;8.98;35.79;102625.44;6192401;28;20226;-56
2021/03/19 14:49:09;;;;;;;1.30;1.20;;;;;;;8.64;36.45;102642.69;6181521;28;20241;-58
2021/03/19 14:52:30;;;;;;;1.40;1.30;;;;;;;8.91;35.86;102646.03;6178321;28;20225;-56
2021/03/19 14:55:51;;;;;;;2.17;1.50;;;;;;;8.67;36.11;102644.53;6183592;28;20603;-56
2021/03/19 14:59:12;;;;;;;1.53;1.20;;;;;;;8.67;36.06;102645.41;6168872;28;20258;-55
2021/03/19 15:02:32;;;;;;;2.10;1.33;;;;;;;8.11;37.11;102643.72;6185368;28;20233;-58
2021/03/19 15:05:53;;;;;;;2.10;1.90;;;;;;;7.96;37.90;102634.63;6184934;28;20226;-57
2021/03/19 15:09:14;;;;;;;2.60;1.77;;;;;;;8.65;36.31;102636.69;6181319;28;20237;-54
2021/03/19 15:12:34;;;;;;;3.07;1.57;;;;;;;10.04;35.00;102643.63;6179483;28;20241;-57
2021/03/19 15:15:56;;;;;;;2.57;2.07;;;;;;;10.56;33.73;102637.78;6185140;28;20222;-57
2021/03/19 15:19:17;;;;;;;3.43;2.23;;;;;;;10.84;33.03;102629.66;6181737;28;20599;-56
2021/03/19 15:22:37;;;;;;;2.63;2.27;;;;;;;10.95;33.32;102642.00;6172040;28;20237;-56
2021/03/19 15:26:01;;;;;;;1.77;1.67;;;;;;;10.75;32.95;102633.81;6187442;28;20759;-57
2021/03/19 15:29:22;;;;;;;3.80;1.50;;;;;;;10.47;32.76;102638.50;6177146;28;20929;-57
2021/03/19 15:32:43;;;;;;;2.40;1.57;;;;;;;9.56;34.66;102639.03;6181188;28;20226;-57
2021/03/19 15:36:06;;;;;;;8.23;5.13;;;;;;;9.33;35.05;102658.41;6183852;28;20226;-57
2021/03/19 15:39:28;;;;;;;3.50;2.40;;;;;;;8.41;36.69;102655.06;6183278;28;20246;-57
2021/03/19 15:42:48;;;;;;;4.70;3.67;;;;;;;8.51;37.05;102653.59;6181612;28;21515;-57
2021/03/19 15:46:09;;;;;;;3.20;1.80;;;;;;;8.82;36.30;102644.97;6182410;28;20227;-57
2021/03/19 15:49:32;;;;;;;7.37;3.07;;;;;;;8.42;36.67;102646.41;6178960;28;20316;-56
2021/03/19 15:52:53;;;;;;;3.17;2.77;;;;;;;7.43;38.07;102654.56;6180911;28;20226;-57
2021/03/19 15:56:14;;;;;;;6.60;5.83;;;;;;;7.26;39.12;102665.22;6187172;28;20234;-56
2021/03/19 15:59:35;;;;;;;9.47;6.70;;;;;;;7.19;39.73;102657.19;6179821;28;20233;-54
2021/03/19 16:02:56;;;;;;;6.10;3.93;;;;;;;6.47;40.65;102669.31;6186579;28;20229;-53
2021/03/19 16:06:17;;;;;;;9.60;5.17;;;;;;;6.36;41.10;102674.91;6185615;28;20322;-57
2021/03/19 16:09:37;;;;;;;10.50;8.00;;;;;;;7.22;40.05;102663.34;6185870;28;20234;-57